NFFN/NAN METAR and TAF weather

Enter ICAO airport designator
Station Type Date Time Source
NFFN METAR 2023/10/01 21:00 UTC NOAA

NFFN 012100Z 11014KT 9999 FEW030 SCT300 25/14 Q1019 NOSIG


Station Type Date Time Source
NFFN Decoded METAR 2023/10/01 21:00 UTC NOAA

Nandi, Fiji (NFFN) 17-45S 177-27E 18M
Oct 01, 2023 - 05:00 PM EDT / 2023.10.01 2100 UTC
Wind: from the ESE (110 degrees) at 16 MPH (14 KT):0
Visibility: greater than 7 mile(s):0
Sky conditions: partly cloudy
Temperature: 77 F (25 C)
Dew Point: 57 F (14 C)
Relative Humidity: 50%
Pressure (altimeter): 30.09 in. Hg (1019 hPa)
ob: NFFN 012100Z 11014KT 9999 FEW030 SCT300 25/14 Q1019 NOSIG
cycle: 21

Station Type Date Time Source
NFFN TAF 2023/10/01 18:06 UTC NOAA

TAF NFFN 011702Z 0118/0218 14010KT 9999 FEW030
BECMG 0123/0201 31012KT
BECMG 0204/0206 13006KT

Example: see airport list